sensor_id;sensor_type;location;lat;lon;timestamp;temperature;humidity
10171;DHT22;5127;50.922;6.988;2023-03-01T00:01:40;3.10;54.90
10171;DHT22;5127;50.922;6.988;2023-03-01T00:04:08;3.10;54.90
10171;DHT22;5127;50.922;6.988;2023-03-01T00:06:35;3.10;55.00
10171;DHT22;5127;50.922;6.988;2023-03-01T00:09:05;3.00;54.90
10171;DHT22;5127;50.922;6.988;2023-03-01T00:11:33;3.00;54.90
10171;DHT22;5127;50.922;6.988;2023-03-01T00:14:01;3.00;55.10
10171;DHT22;5127;50.922;6.988;2023-03-01T00:16:31;2.90;55.20
10171;DHT22;5127;50.922;6.988;2023-03-01T00:19:00;2.90;55.30
10171;DHT22;5127;50.922;6.988;2023-03-01T00:21:27;2.90;55.40
10171;DHT22;5127;50.922;6.988;2023-03-01T00:23:55;2.90;55.40
10171;DHT22;5127;50.922;6.988;2023-03-01T00:26:25;2.90;55.40
10171;DHT22;5127;50.922;6.988;2023-03-01T00:28:53;2.90;55.30
10171;DHT22;5127;50.922;6.988;2023-03-01T00:31:24;2.90;55.40
10171;DHT22;5127;50.922;6.988;2023-03-01T00:33:52;2.90;55.30
10171;DHT22;5127;50.922;6.988;2023-03-01T00:36:24;2.90;55.40
10171;DHT22;5127;50.922;6.988;2023-03-01T00:38:51;2.90;55.40
10171;DHT22;5127;50.922;6.988;2023-03-01T00:41:20;2.90;55.40
10171;DHT22;5127;50.922;6.988;2023-03-01T00:43:50;2.90;55.50
10171;DHT22;5127;50.922;6.988;2023-03-01T00:46:19;2.90;55.50
10171;DHT22;5127;50.922;6.988;2023-03-01T00:48:47;2.90;55.50
10171;DHT22;5127;50.922;6.988;2023-03-01T00:51:17;2.90;55.50
10171;DHT22;5127;50.922;6.988;2023-03-01T00:53:46;2.90;55.50
10171;DHT22;5127;50.922;6.988;2023-03-01T00:56:14;2.90;55.60
10171;DHT22;5127;50.922;6.988;2023-03-01T00:58:41;2.90;55.60
10171;DHT22;5127;50.922;6.988;2023-03-01T01:01:12;2.90;55.60
10171;DHT22;5127;50.922;6.988;2023-03-01T01:03:45;2.90;55.50
10171;DHT22;5127;50.922;6.988;2023-03-01T01:06:17;2.90;55.60
10171;DHT22;5127;50.922;6.988;2023-03-01T01:08:44;2.90;55.50
10171;DHT22;5127;50.922;6.988;2023-03-01T01:11:12;2.90;55.60
10171;DHT22;5127;50.922;6.988;2023-03-01T01:13:40;2.80;55.50
10171;DHT22;5127;50.922;6.988;2023-03-01T01:16:09;2.80;55.50
10171;DHT22;5127;50.922;6.988;2023-03-01T01:18:36;2.80;55.50
10171;DHT22;5127;50.922;6.988;2023-03-01T01:21:05;2.80;55.60
10171;DHT22;5127;50.922;6.988;2023-03-01T01:23:33;2.80;55.50
10171;DHT22;5127;50.922;6.988;2023-03-01T01:26:04;2.80;55.60
10171;DHT22;5127;50.922;6.988;2023-03-01T01:28:32;2.80;55.60
10171;DHT22;5127;50.922;6.988;2023-03-01T01:30:59;2.80;55.70
10171;DHT22;5127;50.922;6.988;2023-03-01T01:33:28;2.70;55.70
10171;DHT22;5127;50.922;6.988;2023-03-01T01:35:55;2.70;55.60
10171;DHT22;5127;50.922;6.988;2023-03-01T01:38:23;2.70;55.70
10171;DHT22;5127;50.922;6.988;2023-03-01T01:40:50;2.70;55.70
10171;DHT22;5127;50.922;6.988;2023-03-01T01:43:21;2.70;55.80
10171;DHT22;5127;50.922;6.988;2023-03-01T01:45:49;2.70;55.80
10171;DHT22;5127;50.922;6.988;2023-03-01T01:48:20;2.70;55.80
10171;DHT22;5127;50.922;6.988;2023-03-01T01:50:54;2.60;56.30
10171;DHT22;5127;50.922;6.988;2023-03-01T01:53:25;2.60;55.80
10171;DHT22;5127;50.922;6.988;2023-03-01T01:55:55;2.50;55.80
10171;DHT22;5127;50.922;6.988;2023-03-01T01:58:26;2.50;55.80
10171;DHT22;5127;50.922;6.988;2023-03-01T02:00:54;2.50;55.90
10171;DHT22;5127;50.922;6.988;2023-03-01T02:03:24;2.40;55.80
10171;DHT22;5127;50.922;6.988;2023-03-01T02:06:00;2.40;55.80
10171;DHT22;5127;50.922;6.988;2023-03-01T02:08:33;2.40;55.90
10171;DHT22;5127;50.922;6.988;2023-03-01T02:11:02;2.40;55.90
10171;DHT22;5127;50.922;6.988;2023-03-01T02:13:30;2.30;56.00
10171;DHT22;5127;50.922;6.988;2023-03-01T02:15:58;2.30;56.00
10171;DHT22;5127;50.922;6.988;2023-03-01T02:18:26;2.30;56.10
10171;DHT22;5127;50.922;6.988;2023-03-01T02:21:06;2.20;56.00
10171;DHT22;5127;50.922;6.988;2023-03-01T02:23:36;2.20;56.00
10171;DHT22;5127;50.922;6.988;2023-03-01T02:26:08;2.20;56.00
10171;DHT22;5127;50.922;6.988;2023-03-01T02:28:40;2.20;56.10
10171;DHT22;5127;50.922;6.988;2023-03-01T02:31:09;2.10;56.10
10171;DHT22;5127;50.922;6.988;2023-03-01T02:33:57;2.10;56.20
10171;DHT22;5127;50.922;6.988;2023-03-01T02:36:28;2.10;56.20
10171;DHT22;5127;50.922;6.988;2023-03-01T02:38:58;2.00;56.20
10171;DHT22;5127;50.922;6.988;2023-03-01T02:41:29;2.00;56.40
10171;DHT22;5127;50.922;6.988;2023-03-01T02:43:59;1.90;56.30
10171;DHT22;5127;50.922;6.988;2023-03-01T02:46:27;1.90;56.40
10171;DHT22;5127;50.922;6.988;2023-03-01T02:48:56;1.90;56.50
10171;DHT22;5127;50.922;6.988;2023-03-01T02:51:40;1.80;56.50
10171;DHT22;5127;50.922;6.988;2023-03-01T02:54:15;1.80;56.50
10171;DHT22;5127;50.922;6.988;2023-03-01T02:56:45;1.80;56.50
10171;DHT22;5127;50.922;6.988;2023-03-01T02:59:19;1.80;56.60
10171;DHT22;5127;50.922;6.988;2023-03-01T03:01:47;1.80;56.70
10171;DHT22;5127;50.922;6.988;2023-03-01T03:04:17;1.80;56.60
10171;DHT22;5127;50.922;6.988;2023-03-01T03:06:49;1.70;56.60
10171;DHT22;5127;50.922;6.988;2023-03-01T03:09:17;1.70;56.60
10171;DHT22;5127;50.922;6.988;2023-03-01T03:11:46;1.70;56.60
10171;DHT22;5127;50.922;6.988;2023-03-01T03:14:16;1.70;56.80
10171;DHT22;5127;50.922;6.988;2023-03-01T03:16:48;1.70;56.80
10171;DHT22;5127;50.922;6.988;2023-03-01T03:19:16;1.70;56.80
10171;DHT22;5127;50.922;6.988;2023-03-01T03:21:43;1.70;56.80
10171;DHT22;5127;50.922;6.988;2023-03-01T03:24:10;1.60;56.70
10171;DHT22;5127;50.922;6.988;2023-03-01T03:26:38;1.60;56.70
10171;DHT22;5127;50.922;6.988;2023-03-01T03:29:05;1.60;56.80
10171;DHT22;5127;50.922;6.988;2023-03-01T03:31:33;1.60;56.90
10171;DHT22;5127;50.922;6.988;2023-03-01T03:34:01;1.60;56.90
10171;DHT22;5127;50.922;6.988;2023-03-01T03:36:28;1.60;56.80
10171;DHT22;5127;50.922;6.988;2023-03-01T03:38:55;1.60;56.90
10171;DHT22;5127;50.922;6.988;2023-03-01T03:41:22;1.50;56.90
10171;DHT22;5127;50.922;6.988;2023-03-01T03:43:49;1.50;57.00
10171;DHT22;5127;50.922;6.988;2023-03-01T03:46:17;1.50;57.00
10171;DHT22;5127;50.922;6.988;2023-03-01T03:48:46;1.50;57.10
10171;DHT22;5127;50.922;6.988;2023-03-01T03:51:15;1.50;57.10
10171;DHT22;5127;50.922;6.988;2023-03-01T03:53:43;1.40;57.10
10171;DHT22;5127;50.922;6.988;2023-03-01T03:56:11;1.40;57.10
10171;DHT22;5127;50.922;6.988;2023-03-01T03:58:38;1.40;57.10
10171;DHT22;5127;50.922;6.988;2023-03-01T04:01:06;1.40;57.00
10171;DHT22;5127;50.922;6.988;2023-03-01T04:03:34;1.40;57.00
10171;DHT22;5127;50.922;6.988;2023-03-01T04:06:04;1.30;57.00
10171;DHT22;5127;50.922;6.988;2023-03-01T04:08:32;1.30;57.00
10171;DHT22;5127;50.922;6.988;2023-03-01T04:11:01;1.30;57.10
10171;DHT22;5127;50.922;6.988;2023-03-01T04:13:51;1.30;57.20
10171;DHT22;5127;50.922;6.988;2023-03-01T04:16:19;1.30;57.20
10171;DHT22;5127;50.922;6.988;2023-03-01T04:18:47;1.20;57.20
10171;DHT22;5127;50.922;6.988;2023-03-01T04:21:16;1.20;57.20
10171;DHT22;5127;50.922;6.988;2023-03-01T04:23:43;1.20;57.30
10171;DHT22;5127;50.922;6.988;2023-03-01T04:26:10;1.20;57.30
10171;DHT22;5127;50.922;6.988;2023-03-01T04:28:39;1.20;57.30
10171;DHT22;5127;50.922;6.988;2023-03-01T04:31:11;1.20;57.30
10171;DHT22;5127;50.922;6.988;2023-03-01T04:33:44;1.10;57.30
10171;DHT22;5127;50.922;6.988;2023-03-01T04:36:13;1.10;57.20
10171;DHT22;5127;50.922;6.988;2023-03-01T04:38:42;1.10;57.30
10171;DHT22;5127;50.922;6.988;2023-03-01T04:41:14;1.10;57.30
10171;DHT22;5127;50.922;6.988;2023-03-01T04:43:41;1.10;57.30
10171;DHT22;5127;50.922;6.988;2023-03-01T04:46:12;1.00;57.30
10171;DHT22;5127;50.922;6.988;2023-03-01T04:48:41;1.00;57.30
10171;DHT22;5127;50.922;6.988;2023-03-01T04:51:09;1.00;57.40
10171;DHT22;5127;50.922;6.988;2023-03-01T04:53:41;1.00;57.50
10171;DHT22;5127;50.922;6.988;2023-03-01T04:56:09;1.00;57.50
10171;DHT22;5127;50.922;6.988;2023-03-01T04:58:36;1.00;57.50
10171;DHT22;5127;50.922;6.988;2023-03-01T05:01:09;1.00;57.50
10171;DHT22;5127;50.922;6.988;2023-03-01T05:03:41;1.00;57.60
10171;DHT22;5127;50.922;6.988;2023-03-01T05:06:10;0.90;57.50
10171;DHT22;5127;50.922;6.988;2023-03-01T05:08:37;0.90;57.50
10171;DHT22;5127;50.922;6.988;2023-03-01T05:11:06;0.90;57.60
10171;DHT22;5127;50.922;6.988;2023-03-01T05:13:35;0.90;57.60
10171;DHT22;5127;50.922;6.988;2023-03-01T05:16:03;0.90;57.70
10171;DHT22;5127;50.922;6.988;2023-03-01T05:18:32;0.90;57.60
10171;DHT22;5127;50.922;6.988;2023-03-01T05:21:04;0.90;57.70
10171;DHT22;5127;50.922;6.988;2023-03-01T05:23:32;0.90;57.80
10171;DHT22;5127;50.922;6.988;2023-03-01T05:26:00;0.90;57.80
10171;DHT22;5127;50.922;6.988;2023-03-01T05:28:30;0.80;57.80
10171;DHT22;5127;50.922;6.988;2023-03-01T05:30:58;0.80;57.70
10171;DHT22;5127;50.922;6.988;2023-03-01T05:33:26;0.80;57.80
10171;DHT22;5127;50.922;6.988;2023-03-01T05:35:53;0.80;57.80
10171;DHT22;5127;50.922;6.988;2023-03-01T05:38:21;0.80;57.80
10171;DHT22;5127;50.922;6.988;2023-03-01T05:40:49;0.80;57.80
10171;DHT22;5127;50.922;6.988;2023-03-01T05:43:17;0.80;57.90
10171;DHT22;5127;50.922;6.988;2023-03-01T05:45:46;0.80;57.90
10171;DHT22;5127;50.922;6.988;2023-03-01T05:48:13;0.80;57.90
10171;DHT22;5127;50.922;6.988;2023-03-01T05:50:42;0.80;57.90
10171;DHT22;5127;50.922;6.988;2023-03-01T05:53:11;0.80;58.00
10171;DHT22;5127;50.922;6.988;2023-03-01T05:55:39;0.80;58.00
10171;DHT22;5127;50.922;6.988;2023-03-01T05:58:10;0.70;57.90
10171;DHT22;5127;50.922;6.988;2023-03-01T06:00:37;0.70;57.90
10171;DHT22;5127;50.922;6.988;2023-03-01T06:03:06;0.70;58.00
10171;DHT22;5127;50.922;6.988;2023-03-01T06:05:33;0.70;58.00
10171;DHT22;5127;50.922;6.988;2023-03-01T06:08:01;0.70;58.00
10171;DHT22;5127;50.922;6.988;2023-03-01T06:10:29;0.70;58.00
10171;DHT22;5127;50.922;6.988;2023-03-01T06:12:57;0.70;58.00
10171;DHT22;5127;50.922;6.988;2023-03-01T06:15:25;0.70;58.00
10171;DHT22;5127;50.922;6.988;2023-03-01T06:17:54;0.70;58.00
10171;DHT22;5127;50.922;6.988;2023-03-01T06:20:26;0.70;58.00
10171;DHT22;5127;50.922;6.988;2023-03-01T06:22:53;0.70;58.00
10171;DHT22;5127;50.922;6.988;2023-03-01T06:25:22;0.70;58.10
10171;DHT22;5127;50.922;6.988;2023-03-01T06:27:50;0.70;58.10
10171;DHT22;5127;50.922;6.988;2023-03-01T06:30:19;0.70;58.10
10171;DHT22;5127;50.922;6.988;2023-03-01T06:32:47;0.70;58.10
10171;DHT22;5127;50.922;6.988;2023-03-01T06:35:16;0.70;58.20
10171;DHT22;5127;50.922;6.988;2023-03-01T06:37:46;0.70;58.20
10171;DHT22;5127;50.922;6.988;2023-03-01T06:40:14;0.70;58.20
10171;DHT22;5127;50.922;6.988;2023-03-01T06:42:47;0.70;58.30
10171;DHT22;5127;50.922;6.988;2023-03-01T06:45:15;0.70;58.30
10171;DHT22;5127;50.922;6.988;2023-03-01T06:47:42;0.70;58.30
10171;DHT22;5127;50.922;6.988;2023-03-01T06:50:10;0.70;58.30
10171;DHT22;5127;50.922;6.988;2023-03-01T06:52:38;0.70;58.40
10171;DHT22;5127;50.922;6.988;2023-03-01T06:55:07;0.80;58.50
10171;DHT22;5127;50.922;6.988;2023-03-01T06:57:34;0.80;58.50
10171;DHT22;5127;50.922;6.988;2023-03-01T07:00:02;0.80;58.60
10171;DHT22;5127;50.922;6.988;2023-03-01T07:02:30;0.80;58.60
10171;DHT22;5127;50.922;6.988;2023-03-01T07:04:57;0.80;58.60
10171;DHT22;5127;50.922;6.988;2023-03-01T07:07:24;0.90;58.70
10171;DHT22;5127;50.922;6.988;2023-03-01T07:09:51;0.90;58.80
10171;DHT22;5127;50.922;6.988;2023-03-01T07:12:20;0.90;58.80
10171;DHT22;5127;50.922;6.988;2023-03-01T07:14:47;1.00;59.00
10171;DHT22;5127;50.922;6.988;2023-03-01T07:17:15;1.00;59.00
10171;DHT22;5127;50.922;6.988;2023-03-01T07:19:42;1.10;59.10
10171;DHT22;5127;50.922;6.988;2023-03-01T07:22:10;1.10;59.10
10171;DHT22;5127;50.922;6.988;2023-03-01T07:24:38;1.10;59.10
10171;DHT22;5127;50.922;6.988;2023-03-01T07:27:05;1.20;59.20
10171;DHT22;5127;50.922;6.988;2023-03-01T07:29:33;1.30;59.30
10171;DHT22;5127;50.922;6.988;2023-03-01T07:32:02;1.30;59.30
10171;DHT22;5127;50.922;6.988;2023-03-01T07:34:29;1.40;59.90
10171;DHT22;5127;50.922;6.988;2023-03-01T07:36:57;1.60;60.70
10171;DHT22;5127;50.922;6.988;2023-03-01T07:39:24;1.80;61.40
10171;DHT22;5127;50.922;6.988;2023-03-01T07:41:51;2.00;61.40
10171;DHT22;5127;50.922;6.988;2023-03-01T07:44:21;2.20;61.00
10171;DHT22;5127;50.922;6.988;2023-03-01T07:46:50;2.40;60.50
10171;DHT22;5127;50.922;6.988;2023-03-01T07:49:22;2.60;60.00
10171;DHT22;5127;50.922;6.988;2023-03-01T07:51:49;2.70;59.90
10171;DHT22;5127;50.922;6.988;2023-03-01T07:54:17;2.90;60.90
10171;DHT22;5127;50.922;6.988;2023-03-01T07:56:44;3.10;62.00
10171;DHT22;5127;50.922;6.988;2023-03-01T07:59:11;3.50;62.70
10171;DHT22;5127;50.922;6.988;2023-03-01T08:01:38;3.80;63.30
10171;DHT22;5127;50.922;6.988;2023-03-01T08:04:07;4.20;63.80
10171;DHT22;5127;50.922;6.988;2023-03-01T08:06:35;4.70;63.70
10171;DHT22;5127;50.922;6.988;2023-03-01T08:09:03;5.10;64.30
10171;DHT22;5127;50.922;6.988;2023-03-01T08:11:30;5.60;63.90
10171;DHT22;5127;50.922;6.988;2023-03-01T08:13:57;6.00;63.90
10171;DHT22;5127;50.922;6.988;2023-03-01T08:16:24;6.50;64.10
10171;DHT22;5127;50.922;6.988;2023-03-01T08:18:52;6.90;64.10
10171;DHT22;5127;50.922;6.988;2023-03-01T08:21:23;7.30;63.60
10171;DHT22;5127;50.922;6.988;2023-03-01T08:23:50;7.70;63.20
10171;DHT22;5127;50.922;6.988;2023-03-01T08:26:19;8.10;62.90
10171;DHT22;5127;50.922;6.988;2023-03-01T08:28:48;8.40;63.10
10171;DHT22;5127;50.922;6.988;2023-03-01T08:31:17;8.80;61.60
10171;DHT22;5127;50.922;6.988;2023-03-01T08:33:45;9.10;61.00
10171;DHT22;5127;50.922;6.988;2023-03-01T08:36:16;9.40;60.80
10171;DHT22;5127;50.922;6.988;2023-03-01T08:38:45;9.70;60.90
10171;DHT22;5127;50.922;6.988;2023-03-01T08:41:13;9.90;60.00
10171;DHT22;5127;50.922;6.988;2023-03-01T08:43:40;10.20;59.00
10171;DHT22;5127;50.922;6.988;2023-03-01T08:46:07;10.40;59.20
10171;DHT22;5127;50.922;6.988;2023-03-01T08:48:35;10.60;58.70
10171;DHT22;5127;50.922;6.988;2023-03-01T08:51:09;10.70;58.80
10171;DHT22;5127;50.922;6.988;2023-03-01T08:53:36;10.90;56.80
10171;DHT22;5127;50.922;6.988;2023-03-01T08:56:05;11.00;57.70
10171;DHT22;5127;50.922;6.988;2023-03-01T08:58:32;11.10;56.90
10171;DHT22;5127;50.922;6.988;2023-03-01T09:01:00;11.20;57.40
10171;DHT22;5127;50.922;6.988;2023-03-01T09:03:27;11.20;56.50
10171;DHT22;5127;50.922;6.988;2023-03-01T09:06:00;11.20;55.80
10171;DHT22;5127;50.922;6.988;2023-03-01T09:08:27;11.20;53.80
10171;DHT22;5127;50.922;6.988;2023-03-01T09:14:06;10.90;51.30
10171;DHT22;5127;50.922;6.988;2023-03-01T09:16:33;10.60;52.20
10171;DHT22;5127;50.922;6.988;2023-03-01T09:19:02;10.40;52.60
10171;DHT22;5127;50.922;6.988;2023-03-01T09:21:29;10.10;52.50
10171;DHT22;5127;50.922;6.988;2023-03-01T09:23:57;9.80;53.00
10171;DHT22;5127;50.922;6.988;2023-03-01T09:26:24;9.60;52.90
10171;DHT22;5127;50.922;6.988;2023-03-01T09:28:53;9.40;53.10
10171;DHT22;5127;50.922;6.988;2023-03-01T09:31:23;9.20;52.90
10171;DHT22;5127;50.922;6.988;2023-03-01T09:33:52;9.00;52.50
10171;DHT22;5127;50.922;6.988;2023-03-01T09:36:20;8.70;51.90
10171;DHT22;5127;50.922;6.988;2023-03-01T09:38:49;8.60;52.20
10171;DHT22;5127;50.922;6.988;2023-03-01T09:41:35;8.40;52.40
10171;DHT22;5127;50.922;6.988;2023-03-01T09:44:10;8.20;51.00
10171;DHT22;5127;50.922;6.988;2023-03-01T09:46:43;8.00;51.50
10171;DHT22;5127;50.922;6.988;2023-03-01T09:49:15;7.90;51.90
10171;DHT22;5127;50.922;6.988;2023-03-01T09:51:53;7.70;52.40
10171;DHT22;5127;50.922;6.988;2023-03-01T09:54:20;7.60;51.90
10171;DHT22;5127;50.922;6.988;2023-03-01T09:56:57;7.50;52.70
10171;DHT22;5127;50.922;6.988;2023-03-01T09:59:29;7.40;52.30
10171;DHT22;5127;50.922;6.988;2023-03-01T10:02:09;7.30;52.70
10171;DHT22;5127;50.922;6.988;2023-03-01T10:04:43;7.20;52.30
10171;DHT22;5127;50.922;6.988;2023-03-01T10:07:28;7.20;52.60
10171;DHT22;5127;50.922;6.988;2023-03-01T10:09:58;7.10;51.90
10171;DHT22;5127;50.922;6.988;2023-03-01T10:12:33;7.00;52.80
10171;DHT22;5127;50.922;6.988;2023-03-01T10:15:05;7.00;51.90
10171;DHT22;5127;50.922;6.988;2023-03-01T10:17:39;6.90;52.50
10171;DHT22;5127;50.922;6.988;2023-03-01T10:20:19;6.90;52.30
10171;DHT22;5127;50.922;6.988;2023-03-01T10:22:47;6.90;52.30
10171;DHT22;5127;50.922;6.988;2023-03-01T10:25:24;6.90;53.10
10171;DHT22;5127;50.922;6.988;2023-03-01T10:27:58;6.80;52.60
10171;DHT22;5127;50.922;6.988;2023-03-01T10:30:34;6.80;53.30
10171;DHT22;5127;50.922;6.988;2023-03-01T10:33:13;6.80;53.00
10171;DHT22;5127;50.922;6.988;2023-03-01T10:35:42;6.80;53.00
10171;DHT22;5127;50.922;6.988;2023-03-01T10:38:11;6.80;53.60
10171;DHT22;5127;50.922;6.988;2023-03-01T10:40:51;6.80;53.30
10171;DHT22;5127;50.922;6.988;2023-03-01T10:43:18;6.80;52.50
10171;DHT22;5127;50.922;6.988;2023-03-01T10:45:46;6.90;53.50
10171;DHT22;5127;50.922;6.988;2023-03-01T10:48:17;6.90;52.90
10171;DHT22;5127;50.922;6.988;2023-03-01T10:50:47;6.90;52.90
10171;DHT22;5127;50.922;6.988;2023-03-01T10:53:22;6.90;53.10
10171;DHT22;5127;50.922;6.988;2023-03-01T10:56:06;6.90;52.70
10171;DHT22;5127;50.922;6.988;2023-03-01T10:58:35;6.90;52.50
10171;DHT22;5127;50.922;6.988;2023-03-01T11:01:04;6.90;53.10
10171;DHT22;5127;50.922;6.988;2023-03-01T11:03:35;6.90;53.10
10171;DHT22;5127;50.922;6.988;2023-03-01T11:06:05;7.00;53.10
10171;DHT22;5127;50.922;6.988;2023-03-01T11:08:42;7.00;53.10
10171;DHT22;5127;50.922;6.988;2023-03-01T11:14:13;7.10;52.50
10171;DHT22;5127;50.922;6.988;2023-03-01T11:16:46;7.10;52.50
10171;DHT22;5127;50.922;6.988;2023-03-01T11:19:18;7.10;52.80
10171;DHT22;5127;50.922;6.988;2023-03-01T11:21:53;7.10;52.40
10171;DHT22;5127;50.922;6.988;2023-03-01T11:24:26;7.20;52.70
10171;DHT22;5127;50.922;6.988;2023-03-01T11:26:55;7.20;53.00
10171;DHT22;5127;50.922;6.988;2023-03-01T11:29:27;7.20;53.50
10171;DHT22;5127;50.922;6.988;2023-03-01T11:32:00;7.30;52.90
10171;DHT22;5127;50.922;6.988;2023-03-01T11:34:39;7.30;53.10
10171;DHT22;5127;50.922;6.988;2023-03-01T11:37:19;7.30;52.50
10171;DHT22;5127;50.922;6.988;2023-03-01T11:39:54;7.40;53.00
10171;DHT22;5127;50.922;6.988;2023-03-01T11:42:30;7.40;52.90
10171;DHT22;5127;50.922;6.988;2023-03-01T11:45:08;7.40;52.70
10171;DHT22;5127;50.922;6.988;2023-03-01T11:48:03;7.50;53.00
10171;DHT22;5127;50.922;6.988;2023-03-01T11:50:40;7.50;52.40
10171;DHT22;5127;50.922;6.988;2023-03-01T11:53:26;7.50;52.60
10171;DHT22;5127;50.922;6.988;2023-03-01T11:56:03;7.50;52.60
10171;DHT22;5127;50.922;6.988;2023-03-01T11:58:45;7.60;53.00
10171;DHT22;5127;50.922;6.988;2023-03-01T12:01:28;7.60;52.50
10171;DHT22;5127;50.922;6.988;2023-03-01T12:07:18;7.70;52.20
10171;DHT22;5127;50.922;6.988;2023-03-01T12:09:55;7.80;52.90
10171;DHT22;5127;50.922;6.988;2023-03-01T12:12:30;7.80;52.70
10171;DHT22;5127;50.922;6.988;2023-03-01T12:15:29;7.80;53.10
10171;DHT22;5127;50.922;6.988;2023-03-01T12:18:13;7.90;52.90
10171;DHT22;5127;50.922;6.988;2023-03-01T12:20:51;7.90;52.50
10171;DHT22;5127;50.922;6.988;2023-03-01T12:23:41;8.00;53.00
10171;DHT22;5127;50.922;6.988;2023-03-01T12:26:18;8.00;52.50
10171;DHT22;5127;50.922;6.988;2023-03-01T12:29:05;8.10;52.70
10171;DHT22;5127;50.922;6.988;2023-03-01T12:37:36;8.20;52.40
10171;DHT22;5127;50.922;6.988;2023-03-01T12:40:30;8.30;53.20
10171;DHT22;5127;50.922;6.988;2023-03-01T12:43:09;8.30;52.50
10171;DHT22;5127;50.922;6.988;2023-03-01T12:45:50;8.40;53.10
10171;DHT22;5127;50.922;6.988;2023-03-01T12:48:37;8.40;52.50
10171;DHT22;5127;50.922;6.988;2023-03-01T12:51:10;8.40;52.70
10171;DHT22;5127;50.922;6.988;2023-03-01T12:53:41;8.50;53.50
10171;DHT22;5127;50.922;6.988;2023-03-01T12:56:13;8.50;53.60
10171;DHT22;5127;50.922;6.988;2023-03-01T12:58:50;8.60;53.40
10171;DHT22;5127;50.922;6.988;2023-03-01T13:01:31;8.60;52.50
10171;DHT22;5127;50.922;6.988;2023-03-01T13:04:15;8.70;52.40
10171;DHT22;5127;50.922;6.988;2023-03-01T13:06:51;8.70;51.70
10171;DHT22;5127;50.922;6.988;2023-03-01T13:09:26;8.80;52.90
10171;DHT22;5127;50.922;6.988;2023-03-01T13:11:55;8.80;52.40
10171;DHT22;5127;50.922;6.988;2023-03-01T13:14:36;8.90;52.70
10171;DHT22;5127;50.922;6.988;2023-03-01T13:17:04;8.90;51.70
10171;DHT22;5127;50.922;6.988;2023-03-01T13:19:58;9.00;53.00
10171;DHT22;5127;50.922;6.988;2023-03-01T13:22:29;9.00;52.30
10171;DHT22;5127;50.922;6.988;2023-03-01T13:25:13;9.10;53.00
10171;DHT22;5127;50.922;6.988;2023-03-01T13:27:43;9.10;50.90
10171;DHT22;5127;50.922;6.988;2023-03-01T13:30:42;9.20;52.10
10171;DHT22;5127;50.922;6.988;2023-03-01T13:33:40;9.20;51.30
10171;DHT22;5127;50.922;6.988;2023-03-01T13:36:09;9.30;51.30
10171;DHT22;5127;50.922;6.988;2023-03-01T13:38:55;9.30;52.30
10171;DHT22;5127;50.922;6.988;2023-03-01T13:41:48;9.40;51.30
10171;DHT22;5127;50.922;6.988;2023-03-01T13:44:21;9.40;51.50
10171;DHT22;5127;50.922;6.988;2023-03-01T13:46:53;9.50;51.40
10171;DHT22;5127;50.922;6.988;2023-03-01T13:49:25;9.50;52.30
10171;DHT22;5127;50.922;6.988;2023-03-01T13:51:53;9.60;52.00
10171;DHT22;5127;50.922;6.988;2023-03-01T13:54:26;9.60;52.40
10171;DHT22;5127;50.922;6.988;2023-03-01T13:56:56;9.60;50.60
10171;DHT22;5127;50.922;6.988;2023-03-01T13:59:25;9.60;51.80
10171;DHT22;5127;50.922;6.988;2023-03-01T14:01:56;9.60;51.50
10171;DHT22;5127;50.922;6.988;2023-03-01T14:04:25;9.70;52.00
10171;DHT22;5127;50.922;6.988;2023-03-01T14:07:09;9.70;51.90
10171;DHT22;5127;50.922;6.988;2023-03-01T14:09:39;9.80;50.90
10171;DHT22;5127;50.922;6.988;2023-03-01T14:12:25;9.80;51.80
10171;DHT22;5127;50.922;6.988;2023-03-01T14:14:59;9.80;50.20
10171;DHT22;5127;50.922;6.988;2023-03-01T14:20:26;9.90;50.30
10171;DHT22;5127;50.922;6.988;2023-03-01T14:22:55;9.90;51.50
10171;DHT22;5127;50.922;6.988;2023-03-01T14:25:26;9.90;52.00
10171;DHT22;5127;50.922;6.988;2023-03-01T14:28:00;10.00;49.90
10171;DHT22;5127;50.922;6.988;2023-03-01T14:30:34;10.00;49.50
10171;DHT22;5127;50.922;6.988;2023-03-01T14:33:03;10.00;49.30
10171;DHT22;5127;50.922;6.988;2023-03-01T14:35:34;10.10;50.10
10171;DHT22;5127;50.922;6.988;2023-03-01T14:38:02;10.10;50.20
10171;DHT22;5127;50.922;6.988;2023-03-01T14:40:32;10.10;50.30
10171;DHT22;5127;50.922;6.988;2023-03-01T14:43:02;10.20;50.00
10171;DHT22;5127;50.922;6.988;2023-03-01T14:45:36;10.10;50.30
10171;DHT22;5127;50.922;6.988;2023-03-01T14:48:19;10.20;50.30
10171;DHT22;5127;50.922;6.988;2023-03-01T14:50:46;10.20;48.90
10171;DHT22;5127;50.922;6.988;2023-03-01T14:53:17;10.20;50.90
10171;DHT22;5127;50.922;6.988;2023-03-01T14:55:48;10.20;50.50
10171;DHT22;5127;50.922;6.988;2023-03-01T14:58:20;10.20;50.80
10171;DHT22;5127;50.922;6.988;2023-03-01T15:00:51;10.30;50.80
10171;DHT22;5127;50.922;6.988;2023-03-01T15:03:30;10.30;50.60
10171;DHT22;5127;50.922;6.988;2023-03-01T15:06:00;10.30;50.40
10171;DHT22;5127;50.922;6.988;2023-03-01T15:08:28;10.30;51.20
10171;DHT22;5127;50.922;6.988;2023-03-01T15:11:02;10.20;50.80
10171;DHT22;5127;50.922;6.988;2023-03-01T15:13:32;10.30;50.70
10171;DHT22;5127;50.922;6.988;2023-03-01T15:16:06;10.20;50.50
10171;DHT22;5127;50.922;6.988;2023-03-01T15:18:35;10.20;50.10
10171;DHT22;5127;50.922;6.988;2023-03-01T15:21:08;10.20;50.60
10171;DHT22;5127;50.922;6.988;2023-03-01T15:23:37;10.20;50.40
10171;DHT22;5127;50.922;6.988;2023-03-01T15:26:16;10.10;50.70
10171;DHT22;5127;50.922;6.988;2023-03-01T15:28:50;10.10;51.20
10171;DHT22;5127;50.922;6.988;2023-03-01T15:31:22;10.10;50.80
10171;DHT22;5127;50.922;6.988;2023-03-01T15:33:50;10.10;50.60
10171;DHT22;5127;50.922;6.988;2023-03-01T15:36:33;10.10;51.00
10171;DHT22;5127;50.922;6.988;2023-03-01T15:39:04;10.00;49.80
10171;DHT22;5127;50.922;6.988;2023-03-01T15:41:37;10.00;51.10
10171;DHT22;5127;50.922;6.988;2023-03-01T15:44:15;10.00;50.90
10171;DHT22;5127;50.922;6.988;2023-03-01T15:46:47;10.00;49.80
10171;DHT22;5127;50.922;6.988;2023-03-01T15:49:29;10.00;50.60
10171;DHT22;5127;50.922;6.988;2023-03-01T15:51:59;10.00;50.00
10171;DHT22;5127;50.922;6.988;2023-03-01T15:54:27;10.00;50.80
10171;DHT22;5127;50.922;6.988;2023-03-01T15:56:55;10.00;50.60
10171;DHT22;5127;50.922;6.988;2023-03-01T15:59:22;10.00;50.90
10171;DHT22;5127;50.922;6.988;2023-03-01T16:01:51;9.90;51.80
10171;DHT22;5127;50.922;6.988;2023-03-01T16:04:18;9.90;51.60
10171;DHT22;5127;50.922;6.988;2023-03-01T16:06:49;9.90;51.70
10171;DHT22;5127;50.922;6.988;2023-03-01T16:09:21;9.90;51.70
10171;DHT22;5127;50.922;6.988;2023-03-01T16:11:49;9.90;51.70
10171;DHT22;5127;50.922;6.988;2023-03-01T16:14:17;9.90;51.90
10171;DHT22;5127;50.922;6.988;2023-03-01T16:16:44;9.80;51.70
10171;DHT22;5127;50.922;6.988;2023-03-01T16:19:13;9.80;51.80
10171;DHT22;5127;50.922;6.988;2023-03-01T16:21:41;9.80;51.50
10171;DHT22;5127;50.922;6.988;2023-03-01T16:24:09;9.80;51.70
10171;DHT22;5127;50.922;6.988;2023-03-01T16:26:37;9.80;51.70
10171;DHT22;5127;50.922;6.988;2023-03-01T16:29:05;9.70;51.70
10171;DHT22;5127;50.922;6.988;2023-03-01T16:31:32;9.70;51.50
10171;DHT22;5127;50.922;6.988;2023-03-01T16:33:59;9.70;51.80
10171;DHT22;5127;50.922;6.988;2023-03-01T16:36:28;9.70;51.70
10171;DHT22;5127;50.922;6.988;2023-03-01T16:38:58;9.60;51.50
10171;DHT22;5127;50.922;6.988;2023-03-01T16:41:27;9.60;51.30
10171;DHT22;5127;50.922;6.988;2023-03-01T16:43:54;9.60;51.60